.
WxDataArchive / Data Records for 2010-04-08
2010-04-07 April 2010 2010-04-09

Data Records for Thursday, 08 April 2010

Time	Temp	Chill	HIndex	Humid	Dewpt	 Wind 	HiWind	WindDir	Rain 	Barom 
-----	----	-----	------	-----	-----	------	------	-------	-----	----- 
00:00	59.8	59.8	59.8	91	57.2	2	6	270	0.01	29.590 
00:05	59.5	59.5	59.5	91	56.9	1	3	270	0.00	29.590 
00:10	59.2	59.2	59.2	91	56.6	1	4	90	0.01	29.590 
00:15	59.0	59.0	59.0	91	56.4	2	7	0	0.01	29.575 
00:20	58.9	58.9	58.9	91	56.3	2	4	22	0.01	29.575 
00:25	58.7	58.7	58.7	91	56.1	2	5	90	0.00	29.575 
00:30	58.6	58.6	58.6	92	56.3	2	7	248	0.01	29.585 
00:35	58.4	58.4	58.4	92	56.1	1	4	225	0.00	29.585 
00:40	58.3	58.3	58.3	92	56.0	1	4	248	0.00	29.585 
00:45	58.3	58.3	58.3	92	56.0	2	5	90	0.00	29.574 
00:50	58.3	58.3	58.3	92	56.0	2	6	90	0.00	29.574 
00:55	58.3	58.3	58.3	92	56.0	2	5	90	0.00	29.574 
01:00	58.3	58.3	58.3	92	56.0	1	7	68	0.00	29.574 
01:05	58.3	58.3	58.3	92	56.0	1	3	90	0.00	29.574 
01:10	58.3	58.3	58.3	93	56.3	1	5	112	0.00	29.574 
01:15	58.3	58.3	58.3	93	56.3	1	3	90	0.00	29.559 
01:20	58.3	58.3	58.3	93	56.3	1	5	112	0.00	29.559 
01:25	58.3	58.3	58.3	93	56.3	1	5	270	0.00	29.559 
01:30	58.3	58.3	58.3	93	56.3	1	4	248	0.00	29.556 
01:35	58.3	58.3	58.3	93	56.3	1	4	248	0.00	29.556 
01:40	58.3	58.3	58.3	93	56.3	2	5	248	0.01	29.556 
01:45	58.1	58.1	58.1	94	56.4	2	6	248	0.01	29.563 
01:50	58.1	58.1	58.1	94	56.4	2	5	248	0.00	29.563 
01:55	58.0	58.0	58.0	94	56.3	3	6	248	0.00	29.563 
02:00	57.8	57.8	57.8	94	56.1	2	5	225	0.01	29.557 
02:05	57.5	57.5	57.5	94	55.8	2	5	270	0.00	29.557 
02:10	57.3	57.3	57.3	94	55.6	2	4	270	0.00	29.557 
02:15	57.0	57.0	57.0	93	55.0	2	5	248	0.00	29.562 
02:20	56.6	56.6	56.6	93	54.6	2	6	248	0.00	29.562 
02:25	56.3	56.3	56.3	93	54.3	2	7	248	0.00	29.562 
02:30	56.0	56.0	56.0	93	54.0	2	5	248	0.00	29.566 
02:35	55.9	55.9	55.9	92	53.6	3	6	248	0.00	29.566 
02:40	55.9	55.9	55.9	92	53.6	1	5	248	0.00	29.566 
02:45	55.7	55.7	55.7	92	53.4	2	5	248	0.00	29.565 
02:50	55.6	55.6	55.6	92	53.3	1	5	248	0.00	29.565 
02:55	55.3	55.3	55.3	91	52.7	2	5	248	0.00	29.565 
03:00	55.1	55.1	55.1	91	52.5	2	6	248	0.00	29.568 
03:05	54.8	54.8	54.8	90	51.9	2	7	248	0.01	29.568 
03:10	54.5	54.5	54.5	90	51.6	2	5	248	0.00	29.568 
03:15	54.2	54.2	54.2	90	51.3	3	6	248	0.00	29.567 
03:20	53.9	53.9	53.9	89	50.7	4	7	248	0.00	29.567 
03:25	53.8	53.8	53.8	89	50.6	2	6	248	0.00	29.567 
03:30	53.6	53.6	53.6	90	50.7	2	5	248	0.00	29.558 
03:35	53.5	53.5	53.5	89	50.3	3	6	248	0.00	29.558 
03:40	53.3	53.3	53.3	89	50.1	3	6	270	0.00	29.558 
03:45	53.1	53.1	53.1	89	49.9	3	5	248	0.00	29.566 
03:50	52.9	52.9	52.9	89	49.7	2	7	248	0.00	29.566 
03:55	52.8	52.8	52.8	88	49.3	3	6	248	0.00	29.566 
04:00	52.6	52.6	52.6	88	49.1	4	10	248	0.00	29.563 
04:05	52.5	52.5	52.5	88	49.0	2	6	248	0.00	29.563 
04:10	52.5	52.5	52.5	89	49.4	1	3	248	0.00	29.563 
04:15	52.3	52.3	52.3	89	49.2	2	6	270	0.00	29.562 
04:20	52.2	52.2	52.2	89	49.1	2	4	225	0.00	29.562 
04:25	52.0	52.0	52.0	89	48.9	2	4	248	0.00	29.562 
04:30	51.9	51.9	51.9	89	48.8	1	4	270	0.00	29.558 
04:35	51.9	51.9	51.9	89	48.8	1	3	270	0.00	29.558 
04:40	51.9	51.9	51.9	90	49.1	1	3	248	0.00	29.558 
04:45	51.9	51.9	51.9	90	49.1	1	4	270	0.00	29.568 
04:50	51.9	51.9	51.9	90	49.1	1	5	270	0.00	29.568 
04:55	51.7	51.7	51.7	90	48.9	2	6	248	0.00	29.568 
05:00	51.7	51.7	51.7	90	48.9	2	5	248	0.00	29.569 
05:05	51.6	51.6	51.6	89	48.5	3	5	248	0.00	29.569 
05:10	51.6	51.6	51.6	89	48.5	2	5	248	0.00	29.569 
05:15	51.6	51.6	51.6	89	48.5	2	6	248	0.00	29.567 
05:20	51.4	51.4	51.4	89	48.3	2	5	248	0.00	29.567 
05:25	51.4	51.4	51.4	89	48.3	3	6	248	0.00	29.567 
05:30	51.4	51.4	51.4	88	48.0	2	6	248	0.00	29.558 
05:35	51.4	51.4	51.4	88	48.0	2	5	248	0.00	29.558 
05:40	51.3	51.3	51.3	88	47.9	2	5	248	0.00	29.558 
05:45	51.3	51.3	51.3	88	47.9	2	5	248	0.00	29.554 
05:50	51.3	51.3	51.3	88	47.9	1	3	248	0.00	29.554 
05:55	51.3	51.3	51.3	88	47.9	2	4	248	0.00	29.554 
06:00	51.1	51.1	51.1	88	47.7	2	4	248	0.00	29.557 
06:05	51.1	51.1	51.1	88	47.7	1	3	248	0.00	29.557 
06:10	51.0	51.0	51.0	88	47.6	2	4	292	0.00	29.557 
06:15	50.7	50.7	50.7	88	47.3	2	6	270	0.00	29.569 
06:20	50.4	50.4	50.4	88	47.0	2	6	270	0.00	29.569 
06:25	50.2	50.2	50.2	88	46.8	2	4	248	0.00	29.569 
06:30	50.2	50.2	50.2	88	46.8	2	5	270	0.00	29.573 
06:35	50.1	50.1	50.1	88	46.7	3	6	270	0.00	29.573 
06:40	49.9	49.9	49.9	88	46.5	3	5	248	0.00	29.573 
06:45	49.6	49.6	49.6	87	45.9	3	6	270	0.00	29.572 
06:50	49.6	49.6	49.6	87	45.9	2	6	270	0.00	29.572 
06:55	49.4	49.4	49.4	88	46.0	3	6	270	0.00	29.572 
07:00	48.8	47.5	48.8	87	45.1	4	10	270	0.00	29.574 
07:05	47.7	46.2	47.7	86	43.7	4	7	270	0.00	29.574 
07:10	47.1	45.5	47.1	87	43.4	4	6	270	0.00	29.574 
07:15	46.8	46.8	46.8	88	43.4	3	4	270	0.00	29.583 
07:20	46.1	46.1	46.1	88	42.7	3	6	270	0.00	29.583 
07:25	45.7	45.7	45.7	88	42.4	3	6	270	0.00	29.583 
07:30	45.2	45.2	45.2	88	41.9	3	6	270	0.00	29.602 
07:35	44.6	44.6	44.6	88	41.3	3	6	270	0.00	29.602 
07:40	44.2	44.2	44.2	88	40.9	3	6	270	0.00	29.602 
07:45	43.8	43.8	43.8	87	40.2	3	7	248	0.00	29.605 
07:50	43.3	43.3	43.3	87	39.7	2	5	248	0.00	29.605 
07:55	43.1	43.1	43.1	86	39.2	3	7	270	0.00	29.605 
08:00	42.8	42.8	42.8	86	38.9	3	7	248	0.00	29.612 
08:05	42.6	42.6	42.6	86	38.7	3	6	270	0.00	29.612 
08:10	42.5	42.5	42.5	86	38.6	3	6	270	0.00	29.612 
08:15	42.5	42.5	42.5	87	38.9	3	7	270	0.00	29.614 
08:20	42.5	42.5	42.5	87	38.9	2	4	270	0.00	29.614 
08:25	42.3	42.3	42.3	87	38.7	2	6	315	0.00	29.614 
08:30	42.2	42.2	42.2	87	38.6	3	5	248	0.00	29.627 
08:35	42.1	42.1	42.1	87	38.5	2	5	248	0.00	29.627 
08:40	42.2	42.2	42.2	87	38.6	3	6	248	0.00	29.627 
08:45	42.2	42.2	42.2	87	38.6	3	5	248	0.00	29.627 
08:50	42.3	42.3	42.3	86	38.4	2	6	292	0.00	29.627 
08:55	42.2	42.2	42.2	85	38.0	3	6	270	0.00	29.627 
09:00	42.2	42.2	42.2	84	37.7	3	6	270	0.00	29.625 
09:05	42.1	39.7	42.1	84	37.6	4	10	270	0.00	29.625 
09:10	42.1	42.1	42.1	84	37.6	2	5	270	0.00	29.625 
09:15	41.9	41.9	41.9	84	37.4	2	4	270	0.00	29.636 
09:20	41.6	41.6	41.6	84	37.1	3	7	270	0.00	29.636 
09:25	41.2	41.2	41.2	84	36.7	3	6	270	0.00	29.636 
09:30	41.1	41.1	41.1	85	36.9	3	6	270	0.00	29.636 
09:35	40.9	40.9	40.9	84	36.4	3	5	270	0.00	29.636 
09:40	40.6	40.6	40.6	84	36.2	3	7	270	0.00	29.636 
09:45	40.6	40.6	40.6	84	36.2	3	6	270	0.00	29.658 
09:50	40.3	40.3	40.3	84	35.9	3	6	292	0.00	29.658 
09:55	40.3	40.3	40.3	84	35.9	3	6	270	0.00	29.658 
10:00	40.2	37.5	40.2	84	35.8	4	10	270	0.00	29.660 
10:05	40.1	37.4	40.1	84	35.7	4	7	270	0.00	29.660 
10:10	40.2	40.2	40.2	84	35.8	3	5	270	0.00	29.660 
10:15	40.3	40.3	40.3	83	35.6	3	6	248	0.00	29.656 
10:20	40.5	40.5	40.5	82	35.4	3	6	270	0.00	29.656 
10:25	40.5	37.9	40.5	81	35.1	4	7	270	0.00	29.656 
10:30	40.9	40.9	40.9	81	35.5	3	6	270	0.00	29.660 
10:35	41.2	38.7	41.2	79	35.2	4	9	270	0.00	29.660 
10:40	41.3	38.8	41.3	78	35.0	4	7	270	0.00	29.660 
10:45	41.6	41.6	41.6	77	34.9	3	10	270	0.00	29.674 
10:50	41.8	41.8	41.8	76	34.8	3	6	270	0.00	29.674 
10:55	42.1	39.7	42.1	77	35.4	4	9	270	0.00	29.674 
11:00	42.8	42.8	42.8	77	36.1	3	6	270	0.00	29.671 
11:05	42.6	40.3	42.6	75	35.2	4	9	270	0.00	29.671 
11:10	42.8	40.6	42.8	74	35.1	4	7	270	0.00	29.671 
11:15	42.3	40.0	42.3	73	34.3	4	6	270	0.00	29.679 
11:20	41.2	41.2	41.2	75	33.9	3	5	315	0.00	29.679 
11:25	40.6	40.6	40.6	77	34.0	2	4	315	0.00	29.679 
11:30	40.5	40.5	40.5	78	34.2	2	4	270	0.00	29.688 
11:35	40.3	40.3	40.3	79	34.3	2	4	248	0.00	29.688 
11:40	40.3	40.3	40.3	79	34.3	3	6	270	0.00	29.688 
11:45	40.8	40.8	40.8	79	34.8	3	6	248	0.00	29.689 
11:50	41.2	38.7	41.2	77	34.5	4	7	270	0.00	29.689 
11:55	41.6	41.6	41.6	76	34.6	3	6	270	0.00	29.689 
12:00	41.8	41.8	41.8	76	34.8	3	6	270	0.00	29.691 
12:05	41.8	41.8	41.8	76	34.8	3	5	270	0.00	29.691 
12:10	42.1	42.1	42.1	77	35.4	2	7	270	0.00	29.691 
12:15	42.2	42.2	42.2	74	34.5	3	7	270	0.00	29.696 
12:20	42.8	42.8	42.8	75	35.4	3	7	270	0.00	29.696 
12:25	43.3	43.3	43.3	72	34.9	3	8	248	0.00	29.696 
12:30	43.5	43.5	43.5	72	35.1	3	7	270	0.00	29.695 
12:35	43.6	43.6	43.6	73	35.5	3	7	270	0.00	29.695 
12:40	43.5	41.4	43.5	71	34.7	4	9	270	0.00	29.695 
12:45	43.1	40.1	43.1	75	35.7	5	7	270	0.00	29.700 
12:50	43.1	40.9	43.1	75	35.7	4	6	270	0.00	29.700 
12:55	44.1	42.1	44.1	73	36.0	4	7	292	0.00	29.700 
13:00	44.5	42.5	44.5	69	35.0	4	7	270	0.00	29.697 
13:05	43.9	43.9	43.9	71	35.1	3	6	270	0.00	29.697 
13:10	43.6	43.6	43.6	72	35.2	3	10	270	0.00	29.697 
13:15	43.5	43.5	43.5	74	35.8	3	6	270	0.00	29.703 
13:20	43.1	43.1	43.1	76	36.1	3	7	270	0.00	29.703 
13:25	42.3	42.3	42.3	81	36.9	3	6	270	0.00	29.703 
13:30	43.2	43.2	43.2	85	39.0	3	6	292	0.00	29.707 
13:35	43.6	41.5	43.6	81	38.2	4	7	270	0.00	29.707 
13:40	44.1	42.1	44.1	76	37.0	4	7	270	0.00	29.707 
13:45	43.5	41.4	43.5	78	37.1	4	7	270	0.00	29.705 
13:50	44.1	42.1	44.1	80	38.3	4	6	270	0.00	29.705 
13:55	43.9	41.1	43.9	76	36.8	5	7	270	0.00	29.705 
14:00	42.9	39.9	42.9	78	36.5	5	10	270	0.00	29.721 
14:05	42.1	39.7	42.1	82	37.0	4	10	270	0.00	29.721 
14:10	42.6	40.3	42.6	83	37.8	4	9	270	0.00	29.721 
14:15	43.2	41.0	43.2	81	37.8	4	11	270	0.00	29.723 
14:20	42.8	39.8	42.8	79	36.7	5	9	270	0.00	29.723 
14:25	42.6	40.3	42.6	78	36.2	4	7	292	0.00	29.723 
14:30	42.8	39.8	42.8	77	36.1	5	11	270	0.00	29.732 
14:35	42.6	39.5	42.6	76	35.6	5	8	270	0.00	29.732 
14:40	42.9	40.7	42.9	76	35.9	4	8	270	0.00	29.732 
14:45	43.2	40.2	43.2	74	35.5	5	13	270	0.00	29.740 
14:50	42.8	40.6	42.8	77	36.1	4	7	270	0.00	29.740 
14:55	42.3	42.3	42.3	80	36.6	3	9	248	0.00	29.740 
15:00	41.8	41.8	41.8	81	36.4	3	10	270	0.00	29.745 
15:05	41.6	41.6	41.6	83	36.8	3	6	270	0.00	29.745 
15:10	41.9	41.9	41.9	84	37.4	2	5	248	0.00	29.745 
15:15	42.5	42.5	42.5	84	38.0	3	7	248	0.00	29.747 
15:20	42.6	40.3	42.6	81	37.2	4	7	270	0.00	29.747 
15:25	42.5	42.5	42.5	79	36.5	3	7	270	0.00	29.747 
15:30	42.3	40.0	42.3	78	35.9	4	9	270	0.00	29.751 
15:35	42.3	40.0	42.3	77	35.6	4	6	270	0.00	29.751 
15:40	42.3	39.2	42.3	76	35.3	5	10	270	0.00	29.751 
15:45	42.5	42.5	42.5	76	35.5	3	7	270	0.00	29.756 
15:50	42.9	40.7	42.9	75	35.5	4	8	270	0.00	29.756 
15:55	42.9	40.7	42.9	74	35.2	4	7	270	0.00	29.756 
16:00	42.6	40.3	42.6	74	34.9	4	10	270	0.00	29.759 
16:05	42.6	40.3	42.6	75	35.2	4	9	270	0.00	29.759 
16:10	42.6	39.5	42.6	74	34.9	5	13	270	0.00	29.759 
16:15	42.9	40.7	42.9	74	35.2	4	7	270	0.00	29.762 
16:20	42.8	39.8	42.8	73	34.8	5	9	270	0.00	29.762 
16:25	42.8	40.6	42.8	73	34.8	4	6	270	0.00	29.762 
16:30	42.6	40.3	42.6	72	34.2	4	7	270	0.00	29.774 
16:35	42.2	39.1	42.2	73	34.2	5	11	270	0.00	29.774 
16:40	42.2	39.9	42.2	73	34.2	4	9	270	0.00	29.774 
16:45	41.9	39.5	41.9	73	33.9	4	6	270	0.00	29.776 
16:50	41.8	41.8	41.8	74	34.1	3	5	270	0.00	29.776 
16:55	41.5	41.5	41.5	75	34.2	3	7	270	0.00	29.776 
17:00	41.2	41.2	41.2	74	33.6	3	6	270	0.00	29.784 
17:05	40.9	40.9	40.9	75	33.6	3	6	315	0.00	29.784 
17:10	40.9	40.9	40.9	75	33.6	3	7	270	0.00	29.784 
17:15	41.2	41.2	41.2	74	33.6	3	6	270	0.00	29.788 
17:20	41.5	41.5	41.5	74	33.8	2	5	270	0.00	29.788 
17:25	41.5	41.5	41.5	73	33.5	3	6	270	0.00	29.788 
17:30	41.5	41.5	41.5	73	33.5	3	5	270	0.00	29.792 
17:35	41.5	41.5	41.5	74	33.8	3	7	270	0.00	29.792 
17:40	41.3	41.3	41.3	73	33.3	3	7	270	0.00	29.792 
17:45	41.2	41.2	41.2	74	33.6	3	6	270	0.00	29.795 
17:50	41.1	41.1	41.1	75	33.8	2	6	315	0.00	29.795 
17:55	41.1	41.1	41.1	75	33.8	2	7	315	0.00	29.795 
18:00	40.9	40.9	40.9	75	33.6	3	6	270	0.00	29.806 
18:05	40.8	40.8	40.8	74	33.2	3	7	270	0.00	29.806 
18:10	40.6	40.6	40.6	73	32.6	3	7	270	0.00	29.806 
18:15	40.6	40.6	40.6	74	33.0	3	6	270	0.00	29.811 
18:20	40.5	40.5	40.5	74	32.9	3	6	270	0.00	29.811 
18:25	40.3	40.3	40.3	74	32.7	3	6	270	0.00	29.811 
18:30	40.2	40.2	40.2	75	32.9	3	5	270	0.00	29.820 
18:35	40.2	40.2	40.2	75	32.9	3	7	292	0.00	29.820 
18:40	40.2	40.2	40.2	76	33.3	3	6	270	0.00	29.820 
18:45	40.1	40.1	40.1	77	33.5	3	7	270	0.00	29.827 
18:50	40.1	40.1	40.1	77	33.5	2	4	292	0.00	29.827 
18:55	40.1	40.1	40.1	76	33.2	3	6	270	0.00	29.827 
19:00	40.1	40.1	40.1	75	32.8	3	6	270	0.00	29.832 
19:05	40.1	40.1	40.1	74	32.5	2	4	270	0.00	29.832 
19:10	40.1	40.1	40.1	74	32.5	2	5	338	0.00	29.832 
19:15	40.1	40.1	40.1	75	32.8	3	7	270	0.00	29.845 
19:20	40.1	40.1	40.1	75	32.8	2	4	270	0.00	29.845 
19:25	39.9	39.9	39.9	75	32.6	2	4	315	0.00	29.845 
19:30	40.1	40.1	40.1	76	33.2	1	6	315	0.00	29.848 
19:35	39.9	39.9	39.9	76	33.0	1	4	292	0.00	29.848 
19:40	39.9	39.9	39.9	75	32.6	2	4	338	0.00	29.848 
19:45	39.9	39.9	39.9	74	32.3	2	5	270	0.00	29.851 
19:50	39.8	39.8	39.8	73	31.9	2	4	248	0.00	29.851 
19:55	39.6	39.6	39.6	74	32.0	2	4	270	0.00	29.851 
20:00	39.6	39.6	39.6	74	32.0	2	5	315	0.00	29.856 
20:05	39.6	39.6	39.6	75	32.3	1	3	315	0.00	29.856 
20:10	39.5	39.5	39.5	74	31.9	2	5	270	0.00	29.856 
20:15	39.3	39.3	39.3	74	31.7	2	5	270	0.00	29.860 
20:20	39.3	39.3	39.3	75	32.0	2	3	315	0.00	29.860 
20:25	39.3	39.3	39.3	76	32.4	1	4	315	0.00	29.860 
20:30	39.1	39.1	39.1	75	31.9	3	7	270	0.00	29.866 
20:35	38.8	38.8	38.8	73	30.9	3	6	270	0.00	29.866 
20:40	38.6	38.6	38.6	73	30.7	3	7	270	0.00	29.866 
20:45	38.3	38.3	38.3	74	30.8	3	6	270	0.00	29.870 
20:50	38.2	38.2	38.2	74	30.7	2	5	270	0.00	29.870 
20:55	37.9	37.9	37.9	75	30.7	2	5	270	0.00	29.870 
21:00	37.8	37.8	37.8	76	30.9	2	5	270	0.00	29.878 
21:05	37.6	37.6	37.6	76	30.7	2	5	270	0.00	29.878 
21:10	37.6	37.6	37.6	76	30.7	2	5	270	0.00	29.878 
21:15	37.8	37.8	37.8	77	31.2	2	4	270	0.00	29.885 
21:20	37.9	37.9	37.9	77	31.3	1	3	270	0.00	29.885 
21:25	37.9	37.9	37.9	77	31.3	1	3	270	0.00	29.885 
21:30	37.8	37.8	37.8	78	31.6	1	4	270	0.00	29.888 
21:35	37.8	37.8	37.8	78	31.6	2	3	338	0.00	29.888 
21:40	37.9	37.9	37.9	78	31.7	2	4	338	0.00	29.888 
21:45	37.9	37.9	37.9	78	31.7	1	3	248	0.00	29.894 
21:50	37.9	37.9	37.9	78	31.7	1	4	248	0.00	29.894 
21:55	37.9	37.9	37.9	77	31.3	1	4	270	0.00	29.894 
22:00	37.9	37.9	37.9	77	31.3	0	2	270	0.00	29.898 
22:05	37.9	37.9	37.9	77	31.3	1	4	270	0.00	29.898 
22:10	37.8	37.8	37.8	78	31.6	1	3	292	0.00	29.898 
22:15	37.8	37.8	37.8	78	31.6	1	3	270	0.00	29.895 
22:20	37.6	37.6	37.6	77	31.1	1	5	292	0.00	29.895 
22:25	37.6	37.6	37.6	77	31.1	2	6	338	0.00	29.895 
22:30	37.3	37.3	37.3	77	30.8	2	5	270	0.00	29.898 
22:35	37.3	37.3	37.3	78	31.1	1	4	270	0.00	29.898 
22:40	37.3	37.3	37.3	78	31.1	1	2	270	0.00	29.898 
22:45	37.2	37.2	37.2	79	31.3	1	6	0	0.00	29.897 
22:50	37.2	37.2	37.2	79	31.3	1	3	292	0.00	29.897 
22:55	37.0	37.0	37.0	78	30.8	1	3	225	0.00	29.897 
23:00	37.0	37.0	37.0	78	30.8	1	3	225	0.00	29.897 
23:05	37.0	37.0	37.0	79	31.1	1	3	225	0.00	29.897 
23:10	37.0	37.0	37.0	78	30.8	1	3	338	0.00	29.897 
23:15	37.0	37.0	37.0	77	30.5	1	4	292	0.00	29.899 
23:20	37.0	37.0	37.0	77	30.5	0	2	292	0.00	29.899 
23:25	36.9	36.9	36.9	77	30.4	1	3	292	0.00	29.899 
23:30	36.9	36.9	36.9	77	30.4	0	2	292	0.00	29.897 
23:35	36.9	36.9	36.9	77	30.4	0	2	292	0.00	29.897 
23:40	36.8	36.8	36.8	77	30.3	1	3	248	0.00	29.897 
23:45	36.8	36.8	36.8	77	30.3	0	2	248	0.00	29.895 
23:50	36.8	36.8	36.8	76	30.0	1	3	248	0.00	29.895 
23:55	36.8	36.8	36.8	77	30.3	1	2	248	0.00	29.895 

CoCoRaHS
IN-AL-39
A2 Web Hosting
Creative Commons License
GoDaddy
search engine by freefind advanced

loaded 2018-11-20 06:57:59 • last modified 2010-11-18 10:43:29
Privacy PolicyDisclaimer
• wx.awcolley.com is powered by PmWiki v.2002016 •
• all content (unless otherwise noted) © 2018 A W Colley